sensor_id;sensor_type;location;lat;lon;timestamp;pressure;altitude;pressure_sealevel;temperature;humidity
17230;BME280;8731;50.364;8.958;2024-02-26T00:00:29;98357.31;;;7.76;76.07
17230;BME280;8731;50.364;8.958;2024-02-26T00:04:56;98353.56;;;7.71;76.68
17230;BME280;8731;50.364;8.958;2024-02-26T00:09:18;98350.03;;;7.69;76.74
17230;BME280;8731;50.364;8.958;2024-02-26T00:13:41;98352.78;;;7.72;76.46
17230;BME280;8731;50.364;8.958;2024-02-26T00:18:04;98338.38;;;7.71;76.28
17230;BME280;8731;50.364;8.958;2024-02-26T00:22:28;98342.88;;;7.75;76.29
17230;BME280;8731;50.364;8.958;2024-02-26T00:26:50;98344.34;;;7.83;76.55
17230;BME280;8731;50.364;8.958;2024-02-26T00:31:14;98330.69;;;7.81;76.20
17230;BME280;8731;50.364;8.958;2024-02-26T00:35:37;98335.41;;;7.88;76.15
17230;BME280;8731;50.364;8.958;2024-02-26T00:40:01;98334.22;;;7.83;75.46
17230;BME280;8731;50.364;8.958;2024-02-26T00:44:24;98329.69;;;7.91;75.70
17230;BME280;8731;50.364;8.958;2024-02-26T00:48:46;98321.53;;;7.83;75.96
17230;BME280;8731;50.364;8.958;2024-02-26T00:53:09;98329.03;;;7.93;75.66
17230;BME280;8731;50.364;8.958;2024-02-26T00:57:32;98323.97;;;7.93;76.08
17230;BME280;8731;50.364;8.958;2024-02-26T01:01:55;98333.44;;;7.96;76.42
17230;BME280;8731;50.364;8.958;2024-02-26T01:06:19;98328.16;;;7.93;76.45
17230;BME280;8731;50.364;8.958;2024-02-26T01:10:42;98334.22;;;7.95;75.91
17230;BME280;8731;50.364;8.958;2024-02-26T01:15:07;98335.84;;;7.94;75.99
17230;BME280;8731;50.364;8.958;2024-02-26T01:19:30;98334.09;;;7.93;75.73
17230;BME280;8731;50.364;8.958;2024-02-26T01:23:53;98337.28;;;7.91;76.03
17230;BME280;8731;50.364;8.958;2024-02-26T01:28:16;98342.25;;;7.89;76.03
17230;BME280;8731;50.364;8.958;2024-02-26T01:32:41;98351.84;;;7.93;76.00
17230;BME280;8731;50.364;8.958;2024-02-26T01:37:05;98345.56;;;7.88;75.84
17230;BME280;8731;50.364;8.958;2024-02-26T01:41:27;98341.16;;;7.97;75.70
17230;BME280;8731;50.364;8.958;2024-02-26T01:45:49;98358.09;;;7.98;75.88
17230;BME280;8731;50.364;8.958;2024-02-26T01:50:14;98364.16;;;8.00;75.65
17230;BME280;8731;50.364;8.958;2024-02-26T01:54:37;98350.19;;;7.94;76.03
17230;BME280;8731;50.364;8.958;2024-02-26T01:59:01;98346.44;;;8.00;75.86
17230;BME280;8731;50.364;8.958;2024-02-26T02:03:25;98325.41;;;7.90;75.64
17230;BME280;8731;50.364;8.958;2024-02-26T02:07:49;98312.81;;;7.80;75.89
17230;BME280;8731;50.364;8.958;2024-02-26T02:12:13;98293.44;;;7.80;75.83
17230;BME280;8731;50.364;8.958;2024-02-26T02:16:35;98284.84;;;7.66;75.97
17230;BME280;8731;50.364;8.958;2024-02-26T02:21:01;98270.09;;;7.73;75.24
17230;BME280;8731;50.364;8.958;2024-02-26T02:25:24;98273.50;;;7.73;74.63
17230;BME280;8731;50.364;8.958;2024-02-26T02:29:47;98274.81;;;7.68;74.77
17230;BME280;8731;50.364;8.958;2024-02-26T02:34:10;98265.13;;;7.74;74.49
17230;BME280;8731;50.364;8.958;2024-02-26T02:38:35;98265.69;;;7.70;73.86
17230;BME280;8731;50.364;8.958;2024-02-26T02:42:57;98292.22;;;7.75;73.94
17230;BME280;8731;50.364;8.958;2024-02-26T02:47:20;98298.06;;;7.74;73.58
17230;BME280;8731;50.364;8.958;2024-02-26T02:51:42;98279.22;;;7.70;74.19
17230;BME280;8731;50.364;8.958;2024-02-26T02:56:06;98274.28;;;7.72;74.09
17230;BME280;8731;50.364;8.958;2024-02-26T03:00:29;98276.03;;;7.73;73.97
17230;BME280;8731;50.364;8.958;2024-02-26T03:04:51;98270.97;;;7.73;73.87
17230;BME280;8731;50.364;8.958;2024-02-26T03:09:13;98262.72;;;7.76;73.98
17230;BME280;8731;50.364;8.958;2024-02-26T03:13:37;98251.69;;;7.75;72.97
17230;BME280;8731;50.364;8.958;2024-02-26T03:18:00;98267.56;;;7.84;73.04
17230;BME280;8731;50.364;8.958;2024-02-26T03:22:22;98270.53;;;7.90;72.94
17230;BME280;8731;50.364;8.958;2024-02-26T03:26:45;98271.53;;;7.92;72.74
17230;BME280;8731;50.364;8.958;2024-02-26T03:31:08;98278.34;;;7.93;72.25
17230;BME280;8731;50.364;8.958;2024-02-26T03:35:32;98288.91;;;7.99;72.20
17230;BME280;8731;50.364;8.958;2024-02-26T03:39:54;98321.22;;;7.90;72.96
17230;BME280;8731;50.364;8.958;2024-02-26T03:44:18;98281.09;;;7.96;73.16
17230;BME280;8731;50.364;8.958;2024-02-26T03:48:42;98312.28;;;7.95;73.19
17230;BME280;8731;50.364;8.958;2024-02-26T03:53:04;98306.09;;;8.04;73.49
17230;BME280;8731;50.364;8.958;2024-02-26T03:57:29;98309.41;;;8.02;73.62
17230;BME280;8731;50.364;8.958;2024-02-26T04:01:51;98309.31;;;8.01;73.38
17230;BME280;8731;50.364;8.958;2024-02-26T04:06:15;98329.56;;;8.01;73.26
17230;BME280;8731;50.364;8.958;2024-02-26T04:10:38;98329.94;;;8.06;73.68
17230;BME280;8731;50.364;8.958;2024-02-26T04:15:00;98321.00;;;8.11;73.12
17230;BME280;8731;50.364;8.958;2024-02-26T04:19:22;98323.84;;;8.04;73.91
17230;BME280;8731;50.364;8.958;2024-02-26T04:23:46;98322.53;;;8.09;73.62
17230;BME280;8731;50.364;8.958;2024-02-26T04:28:09;98324.19;;;8.08;73.85
17230;BME280;8731;50.364;8.958;2024-02-26T04:32:32;98338.53;;;8.08;73.78
17230;BME280;8731;50.364;8.958;2024-02-26T04:36:55;98348.19;;;8.01;72.91
17230;BME280;8731;50.364;8.958;2024-02-26T04:41:20;98349.19;;;8.04;72.61
17230;BME280;8731;50.364;8.958;2024-02-26T04:45:42;98342.91;;;7.98;72.71
17230;BME280;8731;50.364;8.958;2024-02-26T04:50:05;98346.22;;;7.97;72.63
17230;BME280;8731;50.364;8.958;2024-02-26T04:54:28;98344.78;;;8.01;73.00
17230;BME280;8731;50.364;8.958;2024-02-26T04:58:54;98358.66;;;7.94;73.41
17230;BME280;8731;50.364;8.958;2024-02-26T05:03:16;98349.84;;;7.89;71.90
17230;BME280;8731;50.364;8.958;2024-02-26T05:07:41;98353.03;;;7.98;72.65
17230;BME280;8731;50.364;8.958;2024-02-26T05:12:05;98354.81;;;7.99;72.79
17230;BME280;8731;50.364;8.958;2024-02-26T05:16:28;98348.09;;;8.00;73.14
17230;BME280;8731;50.364;8.958;2024-02-26T05:20:51;98354.16;;;8.02;73.02
17230;BME280;8731;50.364;8.958;2024-02-26T05:25:14;98347.53;;;8.04;73.37
17230;BME280;8731;50.364;8.958;2024-02-26T05:29:37;98349.97;;;8.02;73.60
17230;BME280;8731;50.364;8.958;2024-02-26T05:34:00;98358.22;;;8.00;73.79
17230;BME280;8731;50.364;8.958;2024-02-26T05:38:23;98359.22;;;7.90;73.29
17230;BME280;8731;50.364;8.958;2024-02-26T05:42:45;98363.84;;;7.84;73.27
17230;BME280;8731;50.364;8.958;2024-02-26T05:47:10;98375.69;;;7.74;73.13
17230;BME280;8731;50.364;8.958;2024-02-26T05:51:35;98372.88;;;7.92;74.31
17230;BME280;8731;50.364;8.958;2024-02-26T05:55:57;98374.63;;;7.82;74.40
17230;BME280;8731;50.364;8.958;2024-02-26T06:00:20;98383.34;;;7.85;74.33
17230;BME280;8731;50.364;8.958;2024-02-26T06:04:43;98377.50;;;7.86;74.34
17230;BME280;8731;50.364;8.958;2024-02-26T06:09:08;98375.41;;;7.81;73.54
17230;BME280;8731;50.364;8.958;2024-02-26T06:13:31;98381.56;;;7.84;73.93
17230;BME280;8731;50.364;8.958;2024-02-26T06:17:53;98392.69;;;7.86;74.12
17230;BME280;8731;50.364;8.958;2024-02-26T06:22:17;98403.50;;;7.84;74.11
17230;BME280;8731;50.364;8.958;2024-02-26T06:26:42;98408.13;;;7.89;73.89
17230;BME280;8731;50.364;8.958;2024-02-26T06:31:04;98423.22;;;7.88;74.10
17230;BME280;8731;50.364;8.958;2024-02-26T06:35:26;98424.22;;;7.90;73.99
17230;BME280;8731;50.364;8.958;2024-02-26T06:39:49;98433.69;;;7.92;74.40
17230;BME280;8731;50.364;8.958;2024-02-26T06:44:13;98445.59;;;7.93;74.91
17230;BME280;8731;50.364;8.958;2024-02-26T06:48:38;98450.88;;;7.96;74.91
17230;BME280;8731;50.364;8.958;2024-02-26T06:53:01;98444.28;;;7.98;75.12
17230;BME280;8731;50.364;8.958;2024-02-26T06:57:23;98468.94;;;8.01;75.70
17230;BME280;8731;50.364;8.958;2024-02-26T07:01:47;98462.22;;;8.01;76.43
17230;BME280;8731;50.364;8.958;2024-02-26T07:06:09;98462.09;;;7.88;75.91
17230;BME280;8731;50.364;8.958;2024-02-26T07:10:33;98472.47;;;8.03;75.69
17230;BME280;8731;50.364;8.958;2024-02-26T07:14:55;98482.75;;;8.05;77.09
17230;BME280;8731;50.364;8.958;2024-02-26T07:19:19;98470.31;;;8.08;77.45
17230;BME280;8731;50.364;8.958;2024-02-26T07:23:42;98471.84;;;8.06;77.55
17230;BME280;8731;50.364;8.958;2024-02-26T07:28:04;98463.72;;;8.10;78.89
17230;BME280;8731;50.364;8.958;2024-02-26T07:32:27;98465.03;;;8.05;78.93
17230;BME280;8731;50.364;8.958;2024-02-26T07:36:53;98464.91;;;8.15;78.79
17230;BME280;8731;50.364;8.958;2024-02-26T07:41:15;98476.75;;;7.92;79.72
17230;BME280;8731;50.364;8.958;2024-02-26T07:45:37;98471.59;;;8.02;80.08
17230;BME280;8731;50.364;8.958;2024-02-26T07:50:00;98482.47;;;7.90;80.17
17230;BME280;8731;50.364;8.958;2024-02-26T07:54:24;98488.38;;;7.79;79.52
17230;BME280;8731;50.364;8.958;2024-02-26T07:58:47;98497.59;;;8.00;80.32
17230;BME280;8731;50.364;8.958;2024-02-26T08:03:09;98493.63;;;7.92;81.46
17230;BME280;8731;50.364;8.958;2024-02-26T08:07:33;98505.31;;;8.01;81.35
17230;BME280;8731;50.364;8.958;2024-02-26T08:11:58;98512.63;;;8.09;82.18
17230;BME280;8731;50.364;8.958;2024-02-26T08:16:20;98515.00;;;7.95;82.88
17230;BME280;8731;50.364;8.958;2024-02-26T08:20:43;98505.47;;;7.81;85.51
17230;BME280;8731;50.364;8.958;2024-02-26T08:25:09;98512.34;;;7.94;85.50
17230;BME280;8731;50.364;8.958;2024-02-26T08:29:33;98520.78;;;8.05;85.42
17230;BME280;8731;50.364;8.958;2024-02-26T08:33:56;98523.13;;;7.91;87.48
17230;BME280;8731;50.364;8.958;2024-02-26T08:38:20;98526.44;;;7.90;88.28
17230;BME280;8731;50.364;8.958;2024-02-26T08:42:43;98520.56;;;8.13;87.96
17230;BME280;8731;50.364;8.958;2024-02-26T08:47:07;98525.59;;;8.01;88.73
17230;BME280;8731;50.364;8.958;2024-02-26T08:51:30;98532.69;;;8.06;88.19
17230;BME280;8731;50.364;8.958;2024-02-26T08:55:55;98536.44;;;8.11;88.29
17230;BME280;8731;50.364;8.958;2024-02-26T09:00:18;98539.66;;;8.20;89.31
17230;BME280;8731;50.364;8.958;2024-02-26T09:04:42;98543.94;;;8.21;90.06
17230;BME280;8731;50.364;8.958;2024-02-26T09:09:04;98545.16;;;8.26;90.58
17230;BME280;8731;50.364;8.958;2024-02-26T09:13:26;98547.59;;;8.24;92.18
17230;BME280;8731;50.364;8.958;2024-02-26T09:17:49;98547.59;;;8.24;91.57
17230;BME280;8731;50.364;8.958;2024-02-26T09:22:13;98556.72;;;8.11;93.53
17230;BME280;8731;50.364;8.958;2024-02-26T09:26:36;98547.03;;;8.39;92.18
17230;BME280;8731;50.364;8.958;2024-02-26T09:30:58;98540.28;;;8.39;92.87
17230;BME280;8731;50.364;8.958;2024-02-26T09:35:20;98537.16;;;8.31;92.45
17230;BME280;8731;50.364;8.958;2024-02-26T09:39:45;98546.28;;;7.96;95.54
17230;BME280;8731;50.364;8.958;2024-02-26T09:44:09;98546.72;;;8.24;95.88
17230;BME280;8731;50.364;8.958;2024-02-26T09:48:33;98549.72;;;8.30;94.79
17230;BME280;8731;50.364;8.958;2024-02-26T09:52:57;98559.09;;;8.53;93.94
17230;BME280;8731;50.364;8.958;2024-02-26T09:57:24;98562.41;;;8.64;93.38
17230;BME280;8731;50.364;8.958;2024-02-26T10:01:52;98569.00;;;8.73;93.91
17230;BME280;8731;50.364;8.958;2024-02-26T10:06:15;98562.63;;;8.67;93.76
17230;BME280;8731;50.364;8.958;2024-02-26T10:10:41;98570.44;;;8.58;94.76
17230;BME280;8731;50.364;8.958;2024-02-26T10:15:06;98571.63;;;8.51;95.44
17230;BME280;8731;50.364;8.958;2024-02-26T10:19:29;98569.91;;;8.74;95.16
17230;BME280;8731;50.364;8.958;2024-02-26T10:23:52;98575.34;;;9.02;93.95
17230;BME280;8731;50.364;8.958;2024-02-26T10:28:16;98584.47;;;8.65;97.31
17230;BME280;8731;50.364;8.958;2024-02-26T10:32:40;98589.13;;;8.93;96.26
17230;BME280;8731;50.364;8.958;2024-02-26T10:37:02;98593.00;;;8.88;97.23
17230;BME280;8731;50.364;8.958;2024-02-26T10:41:28;98589.03;;;9.04;96.09
17230;BME280;8731;50.364;8.958;2024-02-26T10:45:50;98587.38;;;8.81;96.80
17230;BME280;8731;50.364;8.958;2024-02-26T10:50:14;98594.09;;;9.15;95.26
17230;BME280;8731;50.364;8.958;2024-02-26T10:54:39;98593.53;;;9.19;95.86
17230;BME280;8731;50.364;8.958;2024-02-26T10:59:09;98591.69;;;9.05;96.28
17230;BME280;8731;50.364;8.958;2024-02-26T11:03:32;98591.34;;;9.36;95.64
17230;BME280;8731;50.364;8.958;2024-02-26T11:07:58;98597.75;;;9.19;96.16
17230;BME280;8731;50.364;8.958;2024-02-26T11:12:24;98605.72;;;9.23;96.46
17230;BME280;8731;50.364;8.958;2024-02-26T11:16:50;98607.47;;;9.36;96.30
17230;BME280;8731;50.364;8.958;2024-02-26T11:21:15;98606.81;;;9.50;95.99
17230;BME280;8731;50.364;8.958;2024-02-26T11:25:40;98600.16;;;9.64;95.31
17230;BME280;8731;50.364;8.958;2024-02-26T11:30:09;98597.59;;;9.64;93.93
17230;BME280;8731;50.364;8.958;2024-02-26T11:34:33;98597.44;;;9.86;94.11
17230;BME280;8731;50.364;8.958;2024-02-26T11:38:56;98609.16;;;9.84;93.93
17230;BME280;8731;50.364;8.958;2024-02-26T11:43:50;98607.16;;;9.92;92.52
17230;BME280;8731;50.364;8.958;2024-02-26T11:48:13;98597.91;;;9.69;92.73
17230;BME280;8731;50.364;8.958;2024-02-26T11:52:39;98598.81;;;10.06;91.82
17230;BME280;8731;50.364;8.958;2024-02-26T11:57:01;98611.75;;;10.21;92.48
17230;BME280;8731;50.364;8.958;2024-02-26T12:01:53;98604.59;;;9.92;92.51
17230;BME280;8731;50.364;8.958;2024-02-26T12:06:18;98617.56;;;9.95;89.93
17230;BME280;8731;50.364;8.958;2024-02-26T12:10:43;98619.69;;;10.13;90.13
17230;BME280;8731;50.364;8.958;2024-02-26T12:15:09;98621.91;;;10.09;89.73
17230;BME280;8731;50.364;8.958;2024-02-26T12:19:35;98629.19;;;10.28;88.89
17230;BME280;8731;50.364;8.958;2024-02-26T12:24:08;98623.41;;;10.42;88.00
17230;BME280;8731;50.364;8.958;2024-02-26T12:28:33;98629.41;;;10.31;88.46
17230;BME280;8731;50.364;8.958;2024-02-26T12:32:56;98616.78;;;10.57;88.01
17230;BME280;8731;50.364;8.958;2024-02-26T12:37:22;98607.06;;;10.52;87.27
17230;BME280;8731;50.364;8.958;2024-02-26T12:41:45;98620.97;;;10.43;86.03
17230;BME280;8731;50.364;8.958;2024-02-26T12:46:10;98638.41;;;10.51;85.65
17230;BME280;8731;50.364;8.958;2024-02-26T12:50:33;98644.44;;;10.77;85.33
17230;BME280;8731;50.364;8.958;2024-02-26T12:54:57;98639.84;;;10.85;83.94
17230;BME280;8731;50.364;8.958;2024-02-26T12:59:19;98643.91;;;10.95;84.00
17230;BME280;8731;50.364;8.958;2024-02-26T13:03:42;98646.78;;;10.74;83.19
17230;BME280;8731;50.364;8.958;2024-02-26T13:08:06;98653.31;;;11.09;84.07
17230;BME280;8731;50.364;8.958;2024-02-26T13:12:32;98660.88;;;11.07;82.73
17230;BME280;8731;50.364;8.958;2024-02-26T13:16:55;98659.09;;;11.06;83.12
17230;BME280;8731;50.364;8.958;2024-02-26T13:21:18;98655.81;;;11.21;82.96
17230;BME280;8731;50.364;8.958;2024-02-26T13:25:42;98664.44;;;11.23;82.62
17230;BME280;8731;50.364;8.958;2024-02-26T13:30:09;98660.31;;;11.25;82.82
17230;BME280;8731;50.364;8.958;2024-02-26T13:34:34;98668.53;;;11.21;81.89
17230;BME280;8731;50.364;8.958;2024-02-26T13:38:57;98677.19;;;11.49;83.08
17230;BME280;8731;50.364;8.958;2024-02-26T13:43:20;98679.53;;;11.33;81.26
17230;BME280;8731;50.364;8.958;2024-02-26T13:47:44;98670.28;;;11.86;81.58
17230;BME280;8731;50.364;8.958;2024-02-26T13:52:06;98673.06;;;11.78;80.69
17230;BME280;8731;50.364;8.958;2024-02-26T13:56:29;98667.78;;;12.14;80.72
17230;BME280;8731;50.364;8.958;2024-02-26T14:00:52;98671.47;;;12.33;81.40
17230;BME280;8731;50.364;8.958;2024-02-26T14:05:16;98668.19;;;12.07;79.30
17230;BME280;8731;50.364;8.958;2024-02-26T14:09:39;98667.97;;;12.17;79.09
17230;BME280;8731;50.364;8.958;2024-02-26T14:14:01;98672.09;;;12.15;79.05
17230;BME280;8731;50.364;8.958;2024-02-26T14:18:23;98682.56;;;12.20;77.93
17230;BME280;8731;50.364;8.958;2024-02-26T14:22:49;98676.56;;;12.33;78.31
17230;BME280;8731;50.364;8.958;2024-02-26T14:27:13;98679.38;;;12.09;76.33
17230;BME280;8731;50.364;8.958;2024-02-26T14:31:36;98684.75;;;12.14;76.65
17230;BME280;8731;50.364;8.958;2024-02-26T14:35:58;98682.88;;;12.11;75.83
17230;BME280;8731;50.364;8.958;2024-02-26T14:40:22;98696.94;;;11.91;75.83
17230;BME280;8731;50.364;8.958;2024-02-26T14:44:45;98694.56;;;12.08;74.99
17230;BME280;8731;50.364;8.958;2024-02-26T14:49:07;98696.91;;;12.18;76.50
17230;BME280;8731;50.364;8.958;2024-02-26T14:53:31;98706.22;;;12.17;76.09
17230;BME280;8731;50.364;8.958;2024-02-26T14:57:55;98713.09;;;12.05;76.44
17230;BME280;8731;50.364;8.958;2024-02-26T15:02:17;98710.75;;;11.82;76.59
17230;BME280;8731;50.364;8.958;2024-02-26T15:06:39;98718.00;;;11.76;75.71
17230;BME280;8731;50.364;8.958;2024-02-26T15:11:02;98725.28;;;11.83;76.38
17230;BME280;8731;50.364;8.958;2024-02-26T15:15:27;98729.56;;;11.71;75.68
17230;BME280;8731;50.364;8.958;2024-02-26T15:19:49;98731.94;;;11.81;75.94
17230;BME280;8731;50.364;8.958;2024-02-26T15:24:11;98735.47;;;11.96;76.39
17230;BME280;8731;50.364;8.958;2024-02-26T15:28:36;98738.81;;;11.82;74.98
17230;BME280;8731;50.364;8.958;2024-02-26T15:33:00;98736.47;;;12.11;75.68
17230;BME280;8731;50.364;8.958;2024-02-26T15:37:23;98729.97;;;12.03;75.24
17230;BME280;8731;50.364;8.958;2024-02-26T15:41:47;98737.34;;;11.98;75.56
17230;BME280;8731;50.364;8.958;2024-02-26T15:46:09;98745.59;;;12.08;76.21
17230;BME280;8731;50.364;8.958;2024-02-26T15:50:33;98756.66;;;12.21;76.07
17230;BME280;8731;50.364;8.958;2024-02-26T15:54:58;98757.66;;;12.10;74.72
17230;BME280;8731;50.364;8.958;2024-02-26T15:59:20;98753.50;;;12.25;74.95
17230;BME280;8731;50.364;8.958;2024-02-26T16:03:43;98759.53;;;12.13;74.49
17230;BME280;8731;50.364;8.958;2024-02-26T16:08:11;98764.03;;;11.90;73.49
17230;BME280;8731;50.364;8.958;2024-02-26T16:12:41;98767.44;;;12.04;73.86
17230;BME280;8731;50.364;8.958;2024-02-26T16:17:10;98776.38;;;12.24;73.79
17230;BME280;8731;50.364;8.958;2024-02-26T16:21:37;98783.56;;;12.16;73.63
17230;BME280;8731;50.364;8.958;2024-02-26T16:26:01;98790.81;;;12.23;73.54
17230;BME280;8731;50.364;8.958;2024-02-26T16:30:24;98802.00;;;12.25;73.96
17230;BME280;8731;50.364;8.958;2024-02-26T16:34:49;98811.03;;;12.20;73.40
17230;BME280;8731;50.364;8.958;2024-02-26T16:39:12;98821.53;;;12.25;73.92
17230;BME280;8731;50.364;8.958;2024-02-26T16:43:36;98824.56;;;12.19;73.72
17230;BME280;8731;50.364;8.958;2024-02-26T16:47:58;98819.38;;;12.31;74.01
17230;BME280;8731;50.364;8.958;2024-02-26T16:52:22;98820.72;;;11.99;72.81
17230;BME280;8731;50.364;8.958;2024-02-26T16:56:45;98832.50;;;11.97;72.88
17230;BME280;8731;50.364;8.958;2024-02-26T17:01:09;98845.34;;;11.99;73.24
17230;BME280;8731;50.364;8.958;2024-02-26T17:05:31;98843.44;;;12.08;73.58
17230;BME280;8731;50.364;8.958;2024-02-26T17:09:54;98846.81;;;11.95;73.25
17230;BME280;8731;50.364;8.958;2024-02-26T17:14:18;98852.22;;;11.87;73.45
17230;BME280;8731;50.364;8.958;2024-02-26T17:18:42;98861.00;;;11.79;72.75
17230;BME280;8731;50.364;8.958;2024-02-26T17:23:07;98872.19;;;11.81;73.68
17230;BME280;8731;50.364;8.958;2024-02-26T17:27:29;98889.41;;;11.83;73.87
17230;BME280;8731;50.364;8.958;2024-02-26T17:31:51;98893.38;;;11.80;74.15
17230;BME280;8731;50.364;8.958;2024-02-26T17:36:15;98897.63;;;11.67;75.44
17230;BME280;8731;50.364;8.958;2024-02-26T17:40:38;98904.72;;;11.72;75.85
17230;BME280;8731;50.364;8.958;2024-02-26T17:45:00;98919.41;;;11.62;75.50
17230;BME280;8731;50.364;8.958;2024-02-26T17:49:23;98924.28;;;11.59;75.59
17230;BME280;8731;50.364;8.958;2024-02-26T17:53:49;98944.59;;;11.46;75.88
17230;BME280;8731;50.364;8.958;2024-02-26T17:58:11;98945.19;;;11.42;76.03
17230;BME280;8731;50.364;8.958;2024-02-26T18:02:35;98939.41;;;11.45;75.33
17230;BME280;8731;50.364;8.958;2024-02-26T18:06:57;98952.41;;;11.36;75.36
17230;BME280;8731;50.364;8.958;2024-02-26T18:11:22;98951.28;;;11.32;75.70
17230;BME280;8731;50.364;8.958;2024-02-26T18:15:44;98955.66;;;11.22;75.54
17230;BME280;8731;50.364;8.958;2024-02-26T18:20:07;98959.84;;;11.21;75.89
17230;BME280;8731;50.364;8.958;2024-02-26T18:24:31;98966.41;;;11.18;75.55
17230;BME280;8731;50.364;8.958;2024-02-26T18:28:55;98966.72;;;11.11;75.55
17230;BME280;8731;50.364;8.958;2024-02-26T18:33:18;98978.03;;;11.02;75.49
17230;BME280;8731;50.364;8.958;2024-02-26T18:37:40;98975.06;;;10.96;76.25
17230;BME280;8731;50.364;8.958;2024-02-26T18:42:02;98991.13;;;10.95;75.97
17230;BME280;8731;50.364;8.958;2024-02-26T18:46:28;98990.03;;;10.92;77.04
17230;BME280;8731;50.364;8.958;2024-02-26T18:50:53;99000.53;;;10.85;77.21
17230;BME280;8731;50.364;8.958;2024-02-26T18:55:17;99009.38;;;10.78;77.41
17230;BME280;8731;50.364;8.958;2024-02-26T18:59:42;99021.44;;;10.69;76.44
17230;BME280;8731;50.364;8.958;2024-02-26T19:04:11;99020.19;;;10.64;76.82
17230;BME280;8731;50.364;8.958;2024-02-26T19:08:34;99025.97;;;10.61;76.50
17230;BME280;8731;50.364;8.958;2024-02-26T19:12:57;99044.31;;;10.57;76.34
17230;BME280;8731;50.364;8.958;2024-02-26T19:17:19;99046.75;;;10.56;77.24
17230;BME280;8731;50.364;8.958;2024-02-26T19:21:43;99056.38;;;10.48;77.51
17230;BME280;8731;50.364;8.958;2024-02-26T19:26:06;99062.13;;;10.45;77.33
17230;BME280;8731;50.364;8.958;2024-02-26T19:30:29;99074.25;;;10.38;77.02
17230;BME280;8731;50.364;8.958;2024-02-26T19:34:51;99076.91;;;10.39;77.15
17230;BME280;8731;50.364;8.958;2024-02-26T19:39:16;99069.81;;;10.35;76.88
17230;BME280;8731;50.364;8.958;2024-02-26T19:43:39;99074.47;;;10.29;77.77
17230;BME280;8731;50.364;8.958;2024-02-26T19:48:02;99091.63;;;10.32;77.52
17230;BME280;8731;50.364;8.958;2024-02-26T19:52:25;99099.69;;;10.26;77.76
17230;BME280;8731;50.364;8.958;2024-02-26T19:56:49;99115.06;;;10.28;77.42
17230;BME280;8731;50.364;8.958;2024-02-26T20:01:12;99119.03;;;10.24;78.10
17230;BME280;8731;50.364;8.958;2024-02-26T20:05:34;99127.94;;;10.19;78.21
17230;BME280;8731;50.364;8.958;2024-02-26T20:09:57;99136.59;;;10.21;78.42
17230;BME280;8731;50.364;8.958;2024-02-26T20:14:21;99134.28;;;10.14;78.88
17230;BME280;8731;50.364;8.958;2024-02-26T20:18:43;99149.06;;;10.18;78.49
17230;BME280;8731;50.364;8.958;2024-02-26T20:23:06;99155.03;;;10.19;79.10
17230;BME280;8731;50.364;8.958;2024-02-26T20:27:28;99164.81;;;10.14;78.83
17230;BME280;8731;50.364;8.958;2024-02-26T20:31:53;99165.66;;;10.03;79.67
17230;BME280;8731;50.364;8.958;2024-02-26T20:36:16;99171.75;;;10.05;79.62
17230;BME280;8731;50.364;8.958;2024-02-26T20:40:38;99183.94;;;10.09;79.20
17230;BME280;8731;50.364;8.958;2024-02-26T20:45:01;99191.63;;;9.99;79.72
17230;BME280;8731;50.364;8.958;2024-02-26T20:49:26;99196.16;;;10.03;80.12
17230;BME280;8731;50.364;8.958;2024-02-26T20:53:48;99199.00;;;9.96;80.34
17230;BME280;8731;50.364;8.958;2024-02-26T20:58:11;99216.41;;;9.91;80.09
17230;BME280;8731;50.364;8.958;2024-02-26T21:02:33;99219.72;;;9.90;80.56
17230;BME280;8731;50.364;8.958;2024-02-26T21:06:57;99228.50;;;9.94;80.89
17230;BME280;8731;50.364;8.958;2024-02-26T21:11:20;99244.78;;;9.96;81.27
17230;BME280;8731;50.364;8.958;2024-02-26T21:15:42;99253.19;;;9.84;81.50
17230;BME280;8731;50.364;8.958;2024-02-26T21:20:06;99271.22;;;9.88;82.01
17230;BME280;8731;50.364;8.958;2024-02-26T21:24:31;99277.06;;;9.87;81.76
17230;BME280;8731;50.364;8.958;2024-02-26T21:28:53;99284.22;;;9.80;81.73
17230;BME280;8731;50.364;8.958;2024-02-26T21:33:15;99296.78;;;9.79;82.07
17230;BME280;8731;50.364;8.958;2024-02-26T21:37:38;99301.38;;;9.73;82.24
17230;BME280;8731;50.364;8.958;2024-02-26T21:42:02;99307.13;;;9.70;82.52
17230;BME280;8731;50.364;8.958;2024-02-26T21:46:24;99309.66;;;9.60;83.12
17230;BME280;8731;50.364;8.958;2024-02-26T21:50:47;99311.19;;;9.58;83.06
17230;BME280;8731;50.364;8.958;2024-02-26T21:55:10;99326.19;;;9.55;83.92
17230;BME280;8731;50.364;8.958;2024-02-26T21:59:34;99332.25;;;9.67;83.83
17230;BME280;8731;50.364;8.958;2024-02-26T22:03:56;99332.00;;;9.64;84.36
17230;BME280;8731;50.364;8.958;2024-02-26T22:08:18;99336.97;;;9.52;84.63
17230;BME280;8731;50.364;8.958;2024-02-26T22:12:41;99336.09;;;9.52;84.97
17230;BME280;8731;50.364;8.958;2024-02-26T22:17:05;99339.91;;;9.57;84.87
17230;BME280;8731;50.364;8.958;2024-02-26T22:21:31;99346.25;;;9.52;86.13
17230;BME280;8731;50.364;8.958;2024-02-26T22:25:54;99351.31;;;9.32;88.53
17230;BME280;8731;50.364;8.958;2024-02-26T22:30:16;99350.69;;;9.44;87.50
17230;BME280;8731;50.364;8.958;2024-02-26T22:34:40;99346.25;;;9.42;88.03
17230;BME280;8731;50.364;8.958;2024-02-26T22:39:03;99351.44;;;9.43;87.71
17230;BME280;8731;50.364;8.958;2024-02-26T22:43:27;99358.59;;;9.47;87.63
17230;BME280;8731;50.364;8.958;2024-02-26T22:47:50;99357.41;;;9.44;87.54
17230;BME280;8731;50.364;8.958;2024-02-26T22:52:13;99368.59;;;9.36;88.76
17230;BME280;8731;50.364;8.958;2024-02-26T22:56:37;99373.41;;;9.33;87.99
17230;BME280;8731;50.364;8.958;2024-02-26T23:00:59;99375.72;;;9.40;88.14
17230;BME280;8731;50.364;8.958;2024-02-26T23:05:22;99382.06;;;9.45;88.19
17230;BME280;8731;50.364;8.958;2024-02-26T23:09:47;99387.91;;;9.44;88.27
17230;BME280;8731;50.364;8.958;2024-02-26T23:14:09;99384.00;;;9.47;88.15
17230;BME280;8731;50.364;8.958;2024-02-26T23:18:32;99387.66;;;9.41;89.00
17230;BME280;8731;50.364;8.958;2024-02-26T23:22:54;99385.63;;;9.37;89.75
17230;BME280;8731;50.364;8.958;2024-02-26T23:27:18;99383.44;;;9.41;88.72
17230;BME280;8731;50.364;8.958;2024-02-26T23:31:40;99384.97;;;9.39;88.74
17230;BME280;8731;50.364;8.958;2024-02-26T23:36:04;99397.56;;;9.38;88.78
17230;BME280;8731;50.364;8.958;2024-02-26T23:40:28;99401.88;;;9.39;88.65
17230;BME280;8731;50.364;8.958;2024-02-26T23:44:55;99406.81;;;9.37;88.65